createdAt,value
2018-12-09T00:00:20.828Z,0.30
2018-12-09T00:02:49.119Z,0.20
2018-12-09T00:05:17.371Z,0.30
2018-12-09T00:07:46.403Z,0.20
2018-12-09T00:10:15.057Z,0.10
2018-12-09T00:12:43.518Z,0.60
2018-12-09T00:15:11.824Z,0.20
2018-12-09T00:17:40.044Z,0.70
2018-12-09T00:20:08.511Z,0.47
2018-12-09T00:22:36.984Z,0.40
2018-12-09T00:25:06.040Z,0.20
2018-12-09T00:27:34.642Z,0.20
2018-12-09T00:32:43.350Z,0.53
2018-12-09T00:35:12.069Z,0.30
2018-12-09T00:37:40.465Z,0.53
2018-12-09T00:40:08.789Z,0.73
2018-12-09T00:42:43.462Z,0.67
2018-12-09T00:45:07.874Z,1.07
2018-12-09T00:47:36.100Z,0.20
2018-12-09T00:50:05.015Z,1.13
2018-12-09T00:52:33.422Z,0.87
2018-12-09T00:55:02.064Z,1.70
2018-12-09T00:57:30.163Z,1.40
2018-12-09T00:59:58.974Z,1.43
2018-12-09T01:02:27.411Z,4.67
2018-12-09T01:04:56.069Z,1.20
2018-12-09T01:07:24.181Z,0.60
2018-12-09T01:09:52.441Z,1.90
2018-12-09T01:12:20.983Z,1.33
2018-12-09T01:14:49.258Z,3.70
2018-12-09T01:17:17.540Z,2.03
2018-12-09T01:19:45.685Z,2.10
2018-12-09T01:22:13.920Z,1.73
2018-12-09T01:24:42.388Z,2.53
2018-12-09T01:27:11.213Z,3.10
2018-12-09T01:29:39.524Z,3.17
2018-12-09T01:32:07.730Z,1.03
2018-12-09T01:34:35.896Z,2.30
2018-12-09T01:37:04.546Z,2.10
2018-12-09T01:39:32.867Z,1.90
2018-12-09T01:42:01.754Z,0.93
2018-12-09T01:44:30.123Z,1.87
2018-12-09T01:46:59.787Z,1.23
2018-12-09T01:49:28.706Z,2.07
2018-12-09T01:51:57.350Z,1.23
2018-12-09T01:54:26.023Z,2.23
2018-12-09T01:56:54.251Z,1.90
2018-12-09T01:59:22.574Z,2.37
2018-12-09T02:01:51.047Z,2.97
2018-12-09T02:04:19.931Z,2.13
2018-12-09T02:06:48.342Z,2.13
2018-12-09T02:09:16.864Z,0.93
2018-12-09T02:11:45.220Z,3.00
2018-12-09T02:14:13.544Z,3.37
2018-12-09T02:16:42.338Z,2.40
2018-12-09T02:19:20.920Z,2.00
2018-12-09T02:21:49.544Z,2.00
2018-12-09T02:24:18.828Z,5.30
2018-12-09T02:26:47.232Z,4.23
2018-12-09T02:29:15.547Z,2.97
2018-12-09T02:31:44.971Z,2.57
2018-12-09T02:34:13.446Z,2.47
2018-12-09T02:36:41.852Z,5.17
2018-12-09T02:39:12.015Z,2.10
2018-12-09T02:41:40.453Z,5.53
2018-12-09T02:44:08.832Z,4.33
2018-12-09T02:46:37.793Z,4.63
2018-12-09T02:49:06.101Z,4.93
2018-12-09T02:51:34.599Z,4.80
2018-12-09T02:54:03.102Z,3.47
2018-12-09T02:56:31.538Z,4.67
2018-12-09T02:58:59.853Z,6.90
2018-12-09T03:01:28.087Z,5.53
2018-12-09T03:03:56.896Z,4.80
2018-12-09T03:06:25.337Z,7.03
2018-12-09T03:08:54.119Z,5.30
2018-12-09T03:11:22.208Z,4.07
2018-12-09T03:13:50.482Z,1.73
2018-12-09T03:16:18.674Z,5.33
2018-12-09T03:18:46.946Z,2.37
2018-12-09T03:21:15.124Z,2.23
2018-12-09T03:23:43.401Z,1.10
2018-12-09T03:26:12.054Z,1.73
2018-12-09T03:28:40.550Z,2.43
2018-12-09T03:31:08.737Z,0.90
2018-12-09T03:33:36.955Z,0.70
2018-12-09T03:36:05.225Z,2.17
2018-12-09T03:38:33.930Z,2.60
2018-12-09T03:41:02.258Z,4.77
2018-12-09T03:43:31.465Z,2.10
2018-12-09T03:45:59.996Z,4.60
2018-12-09T03:48:28.262Z,8.80
2018-12-09T03:50:57.498Z,7.53
2018-12-09T03:53:25.841Z,7.67
2018-12-09T03:55:54.696Z,10.33
2018-12-09T03:58:23.029Z,5.67
2018-12-09T04:00:51.377Z,9.30
2018-12-09T04:03:19.786Z,7.37
2018-12-09T04:05:48.199Z,7.57
2018-12-09T04:08:16.861Z,9.33
2018-12-09T04:10:45.720Z,9.30
2018-12-09T04:13:14.270Z,9.27
2018-12-09T04:15:42.976Z,13.20
2018-12-09T04:18:11.996Z,11.53
2018-12-09T04:20:40.500Z,8.40
2018-12-09T04:23:08.756Z,8.87
2018-12-09T04:25:36.988Z,8.43
2018-12-09T04:28:05.241Z,8.87
2018-12-09T04:30:33.869Z,8.00
2018-12-09T04:33:02.308Z,7.60
2018-12-09T04:35:31.012Z,8.00
2018-12-09T04:37:59.416Z,5.13
2018-12-09T04:40:28.056Z,9.47
2018-12-09T04:42:56.578Z,8.20
2018-12-09T04:45:24.943Z,5.87
2018-12-09T04:47:53.552Z,7.90
2018-12-09T04:50:22.046Z,8.13
2018-12-09T04:52:50.785Z,6.20
2018-12-09T04:55:19.114Z,3.10
2018-12-09T04:57:47.686Z,5.33
2018-12-09T05:00:59.679Z,4.50
2018-12-09T05:03:28.335Z,6.03
2018-12-09T05:05:56.711Z,5.20
2018-12-09T05:08:25.457Z,4.10
2018-12-09T05:10:54.033Z,3.50
2018-12-09T05:13:22.231Z,4.83
2018-12-09T05:15:50.509Z,3.47
2018-12-09T05:18:18.820Z,3.97
2018-12-09T05:20:47.617Z,3.23
2018-12-09T05:23:15.733Z,4.03
2018-12-09T05:25:44.364Z,6.73
2018-12-09T05:28:12.697Z,3.57
2018-12-09T05:30:40.840Z,4.40
2018-12-09T05:33:09.487Z,3.63
2018-12-09T05:35:37.786Z,2.37
2018-12-09T05:38:06.202Z,6.47
2018-12-09T05:40:35.102Z,6.57
2018-12-09T05:43:03.751Z,6.33
2018-12-09T05:45:32.478Z,4.93
2018-12-09T05:48:00.648Z,8.83
2018-12-09T05:50:29.244Z,6.87
2018-12-09T05:52:57.555Z,9.03
2018-12-09T05:55:25.696Z,4.50
2018-12-09T05:57:53.984Z,5.43
2018-12-09T06:00:22.367Z,2.67
2018-12-09T06:02:54.875Z,7.57
2018-12-09T06:05:23.345Z,9.90
2018-12-09T06:07:52.117Z,6.03
2018-12-09T06:10:20.301Z,9.40
2018-12-09T06:12:48.611Z,4.80
2018-12-09T06:15:16.764Z,6.30
2018-12-09T06:17:45.185Z,7.80
2018-12-09T06:20:13.621Z,6.97
2018-12-09T06:22:41.958Z,6.03
2018-12-09T06:25:10.361Z,6.60
2018-12-09T06:27:38.474Z,4.63
2018-12-09T06:30:09.884Z,2.90
2018-12-09T06:32:38.241Z,6.03
2018-12-09T06:35:07.542Z,5.63
2018-12-09T06:37:36.329Z,6.13
2018-12-09T06:40:05.823Z,6.53
2018-12-09T06:42:34.463Z,6.70
2018-12-09T06:45:03.080Z,5.23
2018-12-09T06:47:31.374Z,6.20
2018-12-09T06:49:59.758Z,4.93
2018-12-09T06:52:27.882Z,4.80
2018-12-09T06:54:56.539Z,4.53
2018-12-09T06:57:24.947Z,3.37
2018-12-09T06:59:53.099Z,5.33
2018-12-09T07:02:21.463Z,8.17
2018-12-09T07:04:49.734Z,4.13
2018-12-09T07:07:18.595Z,5.10
2018-12-09T07:09:46.932Z,3.97
2018-12-09T07:12:15.596Z,2.87
2018-12-09T07:14:44.022Z,2.70
2018-12-09T07:17:12.221Z,4.03
2018-12-09T07:19:40.551Z,3.60
2018-12-09T07:22:09.252Z,2.97
2018-12-09T07:24:37.673Z,4.00
2018-12-09T07:27:06.324Z,3.60
2018-12-09T07:29:35.374Z,2.43
2018-12-09T07:32:04.090Z,2.50
2018-12-09T07:34:32.370Z,4.93
2018-12-09T07:37:00.580Z,2.70
2018-12-09T07:39:28.946Z,4.63
2018-12-09T07:41:57.179Z,3.83
2018-12-09T07:44:25.894Z,4.07
2018-12-09T07:46:54.330Z,4.10
2018-12-09T07:49:22.567Z,7.70
2018-12-09T07:51:51.290Z,9.23
2018-12-09T07:54:19.441Z,7.33
2018-12-09T07:56:47.917Z,5.17
2018-12-09T07:59:16.116Z,6.97
2018-12-09T08:01:44.531Z,4.80
2018-12-09T08:04:12.800Z,6.43
2018-12-09T08:06:41.036Z,11.00
2018-12-09T08:09:09.556Z,7.13
2018-12-09T08:11:37.674Z,3.60
2018-12-09T08:14:07.965Z,6.20
2018-12-09T08:16:36.312Z,6.27
2018-12-09T08:19:04.627Z,4.20
2018-12-09T08:21:33.093Z,7.93
2018-12-09T08:24:01.337Z,11.47
2018-12-09T08:26:29.673Z,10.60
2018-12-09T08:28:57.817Z,8.63
2018-12-09T08:31:25.938Z,6.07
2018-12-09T08:33:54.177Z,7.40
2018-12-09T08:36:22.353Z,7.97
2018-12-09T08:38:50.679Z,8.40
2018-12-09T08:41:18.897Z,8.40
2018-12-09T08:43:47.020Z,8.77
2018-12-09T08:46:15.305Z,7.37
2018-12-09T08:48:43.602Z,8.63
2018-12-09T08:51:12.122Z,10.73
2018-12-09T08:53:40.282Z,8.23
2018-12-09T08:56:08.521Z,8.37
2018-12-09T08:58:36.934Z,7.23
2018-12-09T09:01:05.274Z,6.93
2018-12-09T09:03:33.679Z,7.03
2018-12-09T09:06:02.321Z,7.43
2018-12-09T09:08:30.749Z,10.10
2018-12-09T09:10:59.313Z,10.00
2018-12-09T09:13:27.932Z,10.00
2018-12-09T09:15:56.120Z,6.80
2018-12-09T09:18:24.598Z,11.57
2018-12-09T09:20:53.085Z,7.73
2018-12-09T09:23:21.387Z,7.83
2018-12-09T09:25:49.675Z,7.63
2018-12-09T09:28:18.018Z,5.27
2018-12-09T09:30:46.418Z,5.30
2018-12-09T09:33:14.938Z,11.30
2018-12-09T09:35:43.262Z,6.63
2018-12-09T09:38:11.896Z,6.00
2018-12-09T09:40:40.236Z,5.67
2018-12-09T09:43:08.511Z,9.47
2018-12-09T09:45:36.642Z,5.20
2018-12-09T09:48:04.789Z,7.50
2018-12-09T09:50:32.970Z,4.77
2018-12-09T09:53:01.547Z,9.63
2018-12-09T09:55:29.860Z,6.97
2018-12-09T09:57:58.479Z,7.97
2018-12-09T10:00:26.940Z,6.30
2018-12-09T10:02:57.457Z,8.63
2018-12-09T10:05:26.439Z,8.60
2018-12-09T10:07:54.854Z,8.30
2018-12-09T10:10:23.042Z,12.07
2018-12-09T10:12:51.151Z,10.17
2018-12-09T10:15:19.399Z,9.20
2018-12-09T10:17:47.595Z,9.23
2018-12-09T10:20:16.156Z,10.07
2018-12-09T10:22:44.364Z,6.67
2018-12-09T10:25:12.756Z,9.77
2018-12-09T10:27:41.313Z,8.30
2018-12-09T10:30:12.999Z,6.77
2018-12-09T10:32:41.500Z,6.80
2018-12-09T10:35:09.883Z,6.63
2018-12-09T10:37:38.285Z,6.37
2018-12-09T10:40:07.005Z,6.43
2018-12-09T10:42:35.510Z,5.17
2018-12-09T10:45:04.476Z,7.63
2018-12-09T10:47:32.907Z,3.90
2018-12-09T10:50:01.068Z,5.40
2018-12-09T10:52:29.262Z,7.13
2018-12-09T10:54:57.594Z,3.83
2018-12-09T10:57:25.796Z,5.37
2018-12-09T10:59:54.290Z,5.47
2018-12-09T11:02:22.474Z,6.77
2018-12-09T11:04:51.123Z,6.13
2018-12-09T11:07:20.221Z,3.60
2018-12-09T11:09:48.663Z,7.87
2018-12-09T11:12:16.855Z,3.23
2018-12-09T11:14:46.605Z,5.70
2018-12-09T11:17:17.972Z,6.27
2018-12-09T11:19:47.540Z,3.67
2018-12-09T11:22:16.891Z,4.90
2018-12-09T11:24:45.153Z,4.37
2018-12-09T11:27:13.358Z,7.00
2018-12-09T11:29:41.584Z,4.13
2018-12-09T11:32:10.146Z,5.90
2018-12-09T11:34:38.714Z,3.80
2018-12-09T11:37:07.472Z,5.10
2018-12-09T11:39:35.633Z,5.20
2018-12-09T11:42:04.006Z,5.53
2018-12-09T11:44:32.990Z,5.60
2018-12-09T11:47:01.345Z,7.47
2018-12-09T11:49:30.315Z,3.50
2018-12-09T11:51:58.614Z,7.73
2018-12-09T11:54:26.863Z,6.90
2018-12-09T11:56:55.331Z,5.73
2018-12-09T11:59:23.672Z,3.87
2018-12-09T12:01:52.256Z,6.87
2018-12-09T12:04:20.389Z,4.97
2018-12-09T12:06:48.894Z,5.60
2018-12-09T12:09:17.369Z,4.13
2018-12-09T12:11:45.605Z,5.50
2018-12-09T12:14:14.177Z,5.50
2018-12-09T12:16:42.383Z,7.33
2018-12-09T12:19:10.655Z,5.30
2018-12-09T12:21:38.962Z,4.83
2018-12-09T12:24:07.437Z,4.13
2018-12-09T12:26:35.817Z,5.47
2018-12-09T12:29:04.067Z,3.87
2018-12-09T12:31:32.359Z,4.77
2018-12-09T12:34:01.256Z,5.60
2018-12-09T12:36:29.579Z,5.40
2018-12-09T12:38:57.811Z,5.37
2018-12-09T12:41:25.961Z,3.50
2018-12-09T12:43:54.536Z,4.13
2018-12-09T12:46:23.058Z,1.87
2018-12-09T12:48:51.460Z,3.20
2018-12-09T12:51:19.689Z,3.63
2018-12-09T12:53:48.015Z,3.70
2018-12-09T12:56:16.652Z,4.70
2018-12-09T12:58:44.931Z,5.43
2018-12-09T13:01:13.136Z,2.43
2018-12-09T13:03:41.771Z,3.50
2018-12-09T13:06:09.985Z,2.13
2018-12-09T13:08:38.538Z,4.03
2018-12-09T13:11:06.824Z,3.23
2018-12-09T13:13:35.491Z,5.13
2018-12-09T13:16:04.115Z,2.23
2018-12-09T13:18:32.965Z,3.53
2018-12-09T13:21:01.158Z,2.70
2018-12-09T13:23:29.518Z,2.77
2018-12-09T13:25:58.058Z,2.20
2018-12-09T13:28:26.347Z,2.83
2018-12-09T13:30:54.542Z,2.73
2018-12-09T13:33:22.762Z,3.03
2018-12-09T13:35:51.008Z,1.80
2018-12-09T13:38:19.136Z,1.20
2018-12-09T13:40:47.667Z,1.20
2018-12-09T13:43:15.935Z,1.80
2018-12-09T13:45:44.105Z,2.53
2018-12-09T13:48:12.428Z,1.00
2018-12-09T13:50:40.853Z,1.17
2018-12-09T13:53:09.368Z,1.73
2018-12-09T13:55:37.720Z,2.73
2018-12-09T13:58:05.884Z,1.33
2018-12-09T14:00:34.316Z,3.57
2018-12-09T14:03:02.449Z,2.03
2018-12-09T14:05:30.905Z,4.53
2018-12-09T14:07:58.965Z,3.43
2018-12-09T14:10:27.277Z,1.53
2018-12-09T14:12:55.627Z,1.97
2018-12-09T14:15:23.948Z,3.07
2018-12-09T14:17:52.161Z,2.97
2018-12-09T14:20:20.335Z,1.93
2018-12-09T14:22:48.590Z,2.43
2018-12-09T14:25:16.771Z,2.87
2018-12-09T14:27:44.904Z,1.00
2018-12-09T14:30:13.121Z,7.23
2018-12-09T14:32:41.463Z,5.60
2018-12-09T14:35:18.269Z,2.03
2018-12-09T14:37:46.551Z,1.20
2018-12-09T14:40:14.925Z,1.50
2018-12-09T14:42:43.024Z,1.67
2018-12-09T14:45:11.308Z,2.10
2018-12-09T14:47:39.564Z,1.90
2018-12-09T14:50:08.730Z,1.63
2018-12-09T14:52:37.008Z,1.33
2018-12-09T14:55:05.806Z,1.97
2018-12-09T14:57:34.428Z,1.70
2018-12-09T15:00:02.473Z,1.20
2018-12-09T15:02:31.125Z,3.23
2018-12-09T15:05:00.270Z,1.47
2018-12-09T15:07:28.807Z,0.93
2018-12-09T15:09:58.386Z,1.97
2018-12-09T15:12:27.816Z,0.83
2018-12-09T15:14:56.042Z,3.37
2018-12-09T15:17:24.402Z,6.27
2018-12-09T15:19:52.878Z,2.93
2018-12-09T15:22:21.012Z,2.33
2018-12-09T15:24:49.234Z,5.43
2018-12-09T15:27:19.191Z,6.00
2018-12-09T15:29:47.757Z,1.53
2018-12-09T15:32:15.937Z,1.93
2018-12-09T15:34:44.110Z,2.00
2018-12-09T15:37:12.288Z,0.97
2018-12-09T15:39:40.860Z,0.53
2018-12-09T15:42:09.332Z,1.00
2018-12-09T15:44:37.969Z,1.90
2018-12-09T15:47:06.416Z,0.80
2018-12-09T15:49:34.920Z,0.60
2018-12-09T15:52:03.617Z,0.70
2018-12-09T15:54:32.490Z,0.93
2018-12-09T15:57:01.229Z,0.60
2018-12-09T15:59:32.249Z,1.07
2018-12-09T16:02:00.604Z,2.17
2018-12-09T16:04:28.800Z,1.47
2018-12-09T16:06:57.085Z,1.53
2018-12-09T16:09:25.282Z,1.23
2018-12-09T16:11:54.175Z,0.80
2018-12-09T16:14:22.470Z,1.93
2018-12-09T16:16:50.666Z,0.83
2018-12-09T16:19:18.892Z,1.97
2018-12-09T16:21:47.026Z,1.43
2018-12-09T16:24:16.070Z,1.23
2018-12-09T16:26:44.278Z,1.30
2018-12-09T16:29:12.618Z,1.93
2018-12-09T16:31:40.841Z,2.27
2018-12-09T16:34:09.136Z,1.20
2018-12-09T16:36:37.499Z,1.47
2018-12-09T16:39:07.135Z,0.90
2018-12-09T16:41:35.627Z,1.23
2018-12-09T16:44:04.120Z,1.77
2018-12-09T16:46:32.561Z,2.90
2018-12-09T16:49:00.864Z,1.53
2018-12-09T16:51:30.253Z,1.53
2018-12-09T16:53:58.449Z,1.83
2018-12-09T16:56:26.861Z,1.33
2018-12-09T16:58:55.285Z,1.40
2018-12-09T17:01:23.993Z,2.53
2018-12-09T17:03:52.538Z,1.23
2018-12-09T17:06:20.934Z,2.07
2018-12-09T17:08:51.031Z,3.37
2018-12-09T17:11:19.762Z,3.27
2018-12-09T17:13:48.215Z,1.90
2018-12-09T17:16:16.402Z,1.97
2018-12-09T17:18:44.724Z,3.70
2018-12-09T17:21:13.203Z,2.33
2018-12-09T17:23:41.434Z,3.43
2018-12-09T17:26:09.692Z,1.43
2018-12-09T17:28:37.846Z,2.77
2018-12-09T17:31:05.991Z,5.40
2018-12-09T17:33:34.521Z,2.60
2018-12-09T17:36:02.712Z,1.97
2018-12-09T17:38:30.960Z,2.53
2018-12-09T17:40:59.157Z,3.20
2018-12-09T17:43:27.383Z,2.67
2018-12-09T17:45:56.276Z,3.60
2018-12-09T17:48:25.184Z,3.07
2018-12-09T17:50:53.453Z,3.93
2018-12-09T17:53:21.888Z,2.37
2018-12-09T17:55:50.332Z,2.23
2018-12-09T17:58:18.445Z,2.53
2018-12-09T18:00:46.580Z,2.03
2018-12-09T18:03:15.645Z,3.17
2018-12-09T18:05:43.808Z,2.33
2018-12-09T18:08:12.374Z,1.40
2018-12-09T18:10:40.566Z,3.37
2018-12-09T18:13:08.959Z,4.20
2018-12-09T18:15:37.287Z,2.27
2018-12-09T18:18:05.611Z,1.67
2018-12-09T18:20:34.047Z,3.27
2018-12-09T18:23:02.399Z,2.60
2018-12-09T18:25:30.751Z,5.17
2018-12-09T18:28:01.002Z,2.43
2018-12-09T18:30:29.864Z,3.40
2018-12-09T18:32:58.003Z,2.37
2018-12-09T18:35:26.396Z,3.70
2018-12-09T18:37:55.770Z,2.37
2018-12-09T18:40:24.262Z,2.57
2018-12-09T18:42:52.489Z,3.97
2018-12-09T18:45:21.880Z,1.63
2018-12-09T18:47:50.321Z,3.70
2018-12-09T18:50:19.121Z,3.70
2018-12-09T18:52:48.435Z,1.50
2018-12-09T18:55:16.829Z,1.27
2018-12-09T18:57:45.317Z,1.93
2018-12-09T19:00:14.031Z,4.93
2018-12-09T19:02:44.630Z,1.77
2018-12-09T19:05:13.407Z,4.57
2018-12-09T19:07:42.149Z,3.07
2018-12-09T19:10:10.957Z,1.93
2018-12-09T19:12:39.469Z,3.67
2018-12-09T19:15:08.089Z,2.70
2018-12-09T19:17:36.574Z,1.67
2018-12-09T19:20:05.582Z,2.80
2018-12-09T19:22:33.931Z,1.60
2018-12-09T19:25:03.408Z,3.80
2018-12-09T19:27:31.924Z,3.63
2018-12-09T19:30:02.740Z,4.30
2018-12-09T19:32:31.168Z,1.70
2018-12-09T19:34:59.692Z,1.40
2018-12-09T19:37:28.400Z,4.37
2018-12-09T19:39:56.669Z,3.47
2018-12-09T19:42:24.909Z,3.70
2018-12-09T19:44:53.089Z,2.00
2018-12-09T19:47:22.237Z,2.70
2018-12-09T19:49:52.226Z,2.83
2018-12-09T19:52:20.723Z,2.10
2018-12-09T19:54:49.304Z,2.67
2018-12-09T19:57:19.316Z,2.77
2018-12-09T19:59:47.791Z,3.03
2018-12-09T20:02:16.235Z,3.80
2018-12-09T20:04:44.796Z,2.10
2018-12-09T20:07:13.655Z,4.17
2018-12-09T20:09:42.208Z,3.30
2018-12-09T20:12:11.843Z,2.47
2018-12-09T20:14:40.525Z,2.83
2018-12-09T20:17:09.242Z,2.30
2018-12-09T20:19:37.822Z,1.60
2018-12-09T20:22:06.157Z,3.63
2018-12-09T20:24:35.210Z,4.87
2018-12-09T20:27:03.851Z,3.20
2018-12-09T20:29:32.379Z,3.87
2018-12-09T20:32:00.526Z,5.67
2018-12-09T20:34:30.219Z,1.83
2018-12-09T20:36:58.544Z,2.60
2018-12-09T20:39:26.969Z,3.07
2018-12-09T20:41:55.140Z,2.17
2018-12-09T20:44:23.275Z,2.30
2018-12-09T20:46:51.454Z,2.60
2018-12-09T20:49:19.725Z,4.13
2018-12-09T20:51:48.163Z,1.60
2018-12-09T20:54:17.395Z,1.87
2018-12-09T20:56:45.508Z,2.13
2018-12-09T20:59:13.784Z,1.57
2018-12-09T21:01:43.161Z,2.97
2018-12-09T21:04:12.050Z,1.40
2018-12-09T21:06:40.600Z,2.37
2018-12-09T21:09:09.646Z,2.80
2018-12-09T21:11:38.613Z,3.27
2018-12-09T21:14:06.969Z,3.73
2018-12-09T21:16:35.737Z,1.60
2018-12-09T21:19:04.139Z,1.73
2018-12-09T21:21:32.292Z,1.50
2018-12-09T21:24:00.784Z,3.90
2018-12-09T21:26:29.364Z,1.50
2018-12-09T21:28:57.548Z,1.50
2018-12-09T21:31:26.545Z,2.40
2018-12-09T21:33:54.852Z,3.00
2018-12-09T21:36:23.364Z,2.17
2018-12-09T21:38:51.805Z,2.37
2018-12-09T21:41:19.952Z,2.70
2018-12-09T21:43:48.583Z,4.10
2018-12-09T21:46:17.268Z,3.47
2018-12-09T21:48:45.588Z,3.33
2018-12-09T21:51:13.869Z,1.90
2018-12-09T21:53:42.114Z,1.90
2018-12-09T21:56:10.530Z,2.30
2018-12-09T21:58:39.602Z,2.80
2018-12-09T22:01:08.202Z,2.20
2018-12-09T22:03:36.799Z,1.87
2018-12-09T22:06:05.377Z,1.70
2018-12-09T22:08:34.385Z,3.20
2018-12-09T22:11:02.538Z,3.30
2018-12-09T22:13:30.972Z,4.63
2018-12-09T22:15:59.354Z,1.50
2018-12-09T22:18:27.879Z,2.90
2018-12-09T22:20:57.603Z,3.10
2018-12-09T22:23:26.238Z,1.50
2018-12-09T22:25:54.447Z,3.33
2018-12-09T22:28:22.567Z,1.97
2018-12-09T22:30:51.052Z,1.93
2018-12-09T22:33:19.457Z,2.97
2018-12-09T22:35:47.590Z,3.20
2018-12-09T22:38:16.018Z,3.97
2018-12-09T22:40:45.181Z,1.97
2018-12-09T22:43:13.941Z,1.87
2018-12-09T22:45:42.232Z,2.53
2018-12-09T22:48:10.826Z,2.27
2018-12-09T22:50:39.835Z,2.53
2018-12-09T22:53:08.100Z,1.90
2018-12-09T22:55:37.458Z,2.57
2018-12-09T22:58:07.498Z,1.70
2018-12-09T23:00:37.978Z,2.40
2018-12-09T23:03:06.227Z,3.23
2018-12-09T23:05:34.829Z,3.13
2018-12-09T23:08:03.071Z,2.70
2018-12-09T23:10:32.076Z,2.60
2018-12-09T23:13:00.581Z,1.60
2018-12-09T23:15:29.135Z,3.17
2018-12-09T23:17:57.249Z,1.70
2018-12-09T23:20:25.614Z,3.10
2018-12-09T23:22:54.106Z,2.73
2018-12-09T23:25:22.271Z,4.90
2018-12-09T23:27:52.896Z,1.60
2018-12-09T23:30:21.247Z,2.00
2018-12-09T23:32:49.474Z,3.70
2018-12-09T23:35:17.932Z,2.13
2018-12-09T23:37:46.335Z,1.60
2018-12-09T23:40:14.514Z,2.57
2018-12-09T23:42:42.762Z,2.20
2018-12-09T23:45:11.195Z,2.63
2018-12-09T23:47:39.354Z,2.57
2018-12-09T23:50:07.616Z,2.83
2018-12-09T23:52:35.973Z,1.23
2018-12-09T23:55:05.284Z,1.27
2018-12-09T23:57:34.436Z,2.97
